Aviation Digital Data Service (ADDS)

Output produced by METARs form (1555 UTC 29 July 2015)
found at http://aviationweather.gov/adds/metars/
 
KEKN 291501Z 2915/3012 VRB03KT P6SM SCT035 
     FM291800 30005KT P6SM VCTS SCT035CB 
     FM292300 VRB03KT P6SM BKN035 
     FM300400 00000KT P6SM BKN035 
     FM300600 00000KT 6SM BR VCTS SCT040CB